Time;durP1;ratioP1;P1;durP2;ratioP2;P2;SDS_P1;SDS_P2;PMS_P1;PMS_P2;Temp;Humidity;BMP_temperature;BMP_pressure;BME280_temperature;BME280_humidity;BME280_pressure;Samples;Min_cycle;Max_cycle;Signal;HPM_P1;HPM_P2
2022/12/17 13:06:49;;;;;;;63.38;30.77;;;0.70;99.90;;;;;;5150046;27;20080;-56
2022/12/17 13:09:15;;;;;;;65.50;32.63;;;0.60;99.90;;;;;;5138748;27;20039;-56
2022/12/17 13:12:01;;;;;;;66.22;30.52;;;0.60;99.90;;;;;;5151591;27;20031;-53
2022/12/17 13:14:33;;;;;;;68.72;33.95;;;0.60;99.90;;;;;;5139130;27;20465;-55
2022/12/17 13:17:07;;;;;;;71.45;35.20;;;0.60;99.90;;;;;;5151110;27;20424;-56
2022/12/17 13:19:58;;;;;;;67.80;31.42;;;0.60;99.90;;;;;;5150366;27;20039;-57
2022/12/17 13:22:24;;;;;;;71.10;32.38;;;0.60;99.90;;;;;;5150140;27;20058;-54
2022/12/17 13:24:52;;;;;;;65.40;29.95;;;0.60;99.90;;;;;;5132517;27;20038;-56
2022/12/17 13:27:37;;;;;;;69.93;33.75;;;0.60;99.90;;;;;;5151918;27;20030;-55
2022/12/17 13:30:20;;;;;;;73.38;34.00;;;0.50;99.90;;;;;;5152635;27;20038;-54
2022/12/17 13:32:52;;;;;;;64.20;32.53;;;0.50;99.90;;;;;;5151520;27;20031;-53
2022/12/17 13:35:36;;;;;;;62.72;31.25;;;0.50;99.90;;;;;;5151337;27;20039;-56
2022/12/17 13:38:40;;;;;;;69.85;32.53;;;0.50;99.90;;;;;;5124873;27;20049;-55
2022/12/17 13:41:07;;;;;;;66.57;32.97;;;0.60;99.90;;;;;;5150160;27;20927;-52
2022/12/17 13:43:58;;;;;;;69.75;31.90;;;0.50;99.90;;;;;;5150587;27;20041;-55
2022/12/17 13:46:29;;;;;;;64.05;30.92;;;0.50;99.90;;;;;;5150591;27;20047;-55
2022/12/17 13:49:00;;;;;;;70.28;34.10;;;0.40;99.90;;;;;;5150595;27;20599;-56
2022/12/17 13:51:29;;;;;;;64.93;33.58;;;0.40;99.90;;;;;;5131213;27;20455;-55
2022/12/17 13:53:56;;;;;;;69.55;33.67;;;0.40;99.90;;;;;;5150904;27;20058;-55
2022/12/17 13:56:25;;;;;;;68.88;32.95;;;0.40;99.90;;;;;;5150535;27;20034;-55
2022/12/17 13:58:53;;;;;;;70.47;35.00;;;0.30;99.90;;;;;;5127493;27;20035;-55
2022/12/17 14:01:19;;;;;;;68.35;33.10;;;0.30;99.90;;;;;;5148557;27;20406;-55
2022/12/17 14:03:54;;;;;;;69.47;35.20;;;0.30;99.90;;;;;;5150598;27;20043;-55
2022/12/17 14:06:22;;;;;;;74.82;32.28;;;0.20;99.90;;;;;;5141085;27;20054;-56
2022/12/17 14:08:50;;;;;;;64.97;33.03;;;0.30;99.90;;;;;;5141849;27;20093;-55
2022/12/17 14:14:01;;;;;;;68.30;32.63;;;0.20;99.90;;;;;;5141896;27;20445;-56
2022/12/17 14:16:27;;;;;;;71.70;34.28;;;0.20;99.90;;;;;;5122967;27;20061;-55
2022/12/17 14:18:55;;;;;;;73.20;35.20;;;0.10;99.90;;;;;;5140860;27;20039;-54
2022/12/17 14:21:21;;;;;;;69.03;32.50;;;0.10;99.90;;;;;;5141534;27;20121;-56
2022/12/17 14:23:49;;;;;;;83.63;41.55;;;0.10;99.90;;;;;;5121724;27;20039;-56
2022/12/17 14:26:15;;;;;;;73.40;32.55;;;0.00;99.90;;;;;;5141811;27;20104;-54
2022/12/17 14:28:48;;;;;;;60.75;29.60;;;0.00;99.90;;;;;;5143374;27;20089;-56
2022/12/17 14:31:13;;;;;;;67.00;31.10;;;0.00;99.90;;;;;;5157374;27;20045;-55
2022/12/17 14:33:41;;;;;;;70.32;34.30;;;0.00;99.90;;;;;;5161503;27;20098;-56
2022/12/17 14:36:20;;;;;;;69.63;33.95;;;0.10;99.90;;;;;;5133725;27;20263;-56
2022/12/17 14:39:00;;;;;;;71.55;32.15;;;0.00;99.90;;;;;;5140030;27;20043;-55
2022/12/17 14:44:30;;;;;;;75.38;36.60;;;-0.10;99.90;;;;;;5141637;27;20082;-56
2022/12/17 14:47:15;;;;;;;80.25;35.80;;;-0.20;99.90;;;;;;5141043;27;20057;-55
2022/12/17 14:50:03;;;;;;;78.53;37.20;;;-0.20;99.90;;;;;;5140664;27;20051;-56
2022/12/17 14:52:37;;;;;;;75.85;35.58;;;-0.30;99.90;;;;;;5141429;27;20051;-56
2022/12/17 14:55:33;;;;;;;70.18;32.05;;;-0.30;99.90;;;;;;5142232;27;20172;-54
2022/12/17 14:58:10;;;;;;;73.47;33.30;;;-0.40;99.90;;;;;;5161113;27;20078;-55
2022/12/17 15:00:45;;;;;;;78.20;37.17;;;-0.40;99.90;;;;;;5143271;27;20111;-55
2022/12/17 15:03:20;;;;;;;72.90;34.30;;;-0.50;99.90;;;;;;5150055;27;20043;-56
2022/12/17 15:06:01;;;;;;;68.45;30.98;;;-0.40;99.90;;;;;;5135167;27;20152;-55
2022/12/17 15:08:32;;;;;;;71.57;33.30;;;-0.50;99.90;;;;;;5142242;27;20092;-54
2022/12/17 15:10:57;;;;;;;71.28;31.50;;;-0.50;99.90;;;;;;5144720;27;20130;-56
2022/12/17 15:13:23;;;;;;;75.50;33.95;;;-0.50;99.90;;;;;;5153560;27;20086;-55
2022/12/17 15:15:49;;;;;;;73.80;33.13;;;-0.60;99.90;;;;;;5157249;27;20039;-56
2022/12/17 15:18:14;;;;;;;78.88;36.03;;;-0.70;99.90;;;;;;5153128;27;20070;-55
2022/12/17 15:20:40;;;;;;;73.88;33.50;;;-0.70;99.90;;;;;;5157425;27;20114;-55
2022/12/17 15:23:19;;;;;;;76.20;35.58;;;-0.70;99.90;;;;;;5157824;27;20038;-55
2022/12/17 15:25:47;;;;;;;76.55;35.30;;;-0.80;99.90;;;;;;5150794;27;20068;-54
2022/12/17 15:28:14;;;;;;;70.63;34.30;;;-0.70;99.90;;;;;;5147212;27;20102;-56
2022/12/17 15:30:40;;;;;;;73.35;34.00;;;-0.80;99.90;;;;;;5144888;27;20035;-55
2022/12/17 15:33:06;;;;;;;74.65;35.42;;;-0.80;99.90;;;;;;5126936;28;20053;-54
2022/12/17 15:35:33;;;;;;;72.85;33.15;;;-0.90;99.90;;;;;;5155186;27;20043;-57
2022/12/17 15:37:58;;;;;;;71.43;33.28;;;-1.00;99.90;;;;;;5157074;27;20047;-55
2022/12/17 15:40:24;;;;;;;73.28;31.70;;;-0.90;99.90;;;;;;5138337;27;20081;-56
2022/12/17 15:45:34;;;;;;;75.25;33.88;;;-1.00;99.90;;;;;;5157032;27;20092;-56
2022/12/17 15:48:00;;;;;;;77.35;32.25;;;-1.00;99.90;;;;;;5157815;27;20042;-55
2022/12/17 15:50:25;;;;;;;72.20;33.08;;;-1.00;99.90;;;;;;5156863;27;20061;-56
2022/12/17 15:52:51;;;;;;;74.35;34.95;;;-1.10;99.90;;;;;;5151059;27;20035;-55
2022/12/17 15:55:17;;;;;;;75.40;34.55;;;-1.20;99.90;;;;;;5144220;27;20030;-57
2022/12/17 15:57:42;;;;;;;72.90;33.17;;;-1.10;99.90;;;;;;5147131;27;20039;-55
2022/12/17 16:00:09;;;;;;;75.35;34.00;;;-1.20;99.90;;;;;;5131966;28;20047;-54
2022/12/17 16:02:35;;;;;;;78.35;34.53;;;-1.10;99.90;;;;;;5136076;28;20503;-56
2022/12/17 16:05:01;;;;;;;75.97;33.38;;;-1.20;99.90;;;;;;5117525;28;20051;-55
2022/12/17 16:07:26;;;;;;;74.10;32.10;;;-1.30;99.90;;;;;;5134795;28;20099;-54
2022/12/17 16:09:52;;;;;;;80.65;35.85;;;-1.40;99.90;;;;;;5136531;28;20466;-55
2022/12/17 16:12:18;;;;;;;74.72;33.60;;;-1.30;99.90;;;;;;5136016;28;20498;-56
2022/12/17 16:14:44;;;;;;;74.35;32.58;;;-1.30;99.90;;;;;;5136599;28;20045;-55
2022/12/17 16:17:09;;;;;;;76.03;33.20;;;-1.40;99.90;;;;;;5136527;28;20506;-55
2022/12/17 16:19:36;;;;;;;83.53;36.67;;;-1.50;99.90;;;;;;5135551;28;20077;-54
2022/12/17 16:22:01;;;;;;;76.70;34.38;;;-1.50;99.90;;;;;;5136569;28;20093;-54
2022/12/17 16:24:27;;;;;;;79.78;34.60;;;-1.40;99.90;;;;;;5136557;27;20693;-53
2022/12/17 16:26:53;;;;;;;79.85;34.88;;;-1.50;99.90;;;;;;5140543;27;20071;-53
2022/12/17 16:29:18;;;;;;;77.85;35.20;;;-1.40;99.90;;;;;;5140564;27;20072;-53
2022/12/17 16:31:45;;;;;;;78.38;33.85;;;-1.50;99.90;;;;;;5149894;27;20115;-55
2022/12/17 16:34:11;;;;;;;73.85;31.83;;;-1.50;99.90;;;;;;5132899;27;20504;-55
2022/12/17 16:36:37;;;;;;;75.15;32.03;;;-1.50;99.90;;;;;;5160362;27;20061;-55
2022/12/17 16:39:04;;;;;;;77.45;33.70;;;-1.60;99.90;;;;;;5160990;27;20095;-54
2022/12/17 16:41:30;;;;;;;82.70;32.90;;;-1.50;99.90;;;;;;5159724;27;20047;-55
2022/12/17 16:43:55;;;;;;;75.50;33.90;;;-1.70;99.90;;;;;;5160675;27;20046;-54
2022/12/17 16:46:29;;;;;;;80.30;34.53;;;-1.60;99.90;;;;;;5141470;27;20043;-54
2022/12/17 16:48:56;;;;;;;74.53;32.83;;;-1.70;99.90;;;;;;5141118;27;20049;-54
2022/12/17 16:51:23;;;;;;;77.45;32.50;;;-1.70;99.90;;;;;;5160405;27;20049;-54
2022/12/17 16:53:49;;;;;;;78.68;32.38;;;-1.70;99.90;;;;;;5154520;27;20043;-54
2022/12/17 16:56:20;;;;;;;84.32;32.75;;;-1.60;99.90;;;;;;5149085;27;20103;-54
2022/12/17 16:58:46;;;;;;;81.30;35.00;;;-1.70;99.90;;;;;;5151007;27;20088;-56
2022/12/17 17:01:16;;;;;;;77.80;31.23;;;-1.80;99.90;;;;;;5124103;27;20583;-54
2022/12/17 17:03:42;;;;;;;82.05;35.28;;;-1.70;99.90;;;;;;5158786;27;20076;-54
2022/12/17 17:06:08;;;;;;;82.57;32.70;;;-1.80;99.90;;;;;;5135866;27;20133;-55
2022/12/17 17:08:38;;;;;;;79.22;32.22;;;-1.80;99.90;;;;;;5138298;27;20039;-56
2022/12/17 17:11:11;;;;;;;76.45;31.42;;;-1.70;99.90;;;;;;5137511;27;20643;-55
2022/12/17 17:13:37;;;;;;;79.55;32.00;;;-1.80;99.90;;;;;;5137818;27;20046;-55
2022/12/17 17:16:03;;;;;;;75.25;30.77;;;-1.70;99.90;;;;;;5137588;27;20067;-53
2022/12/17 17:18:30;;;;;;;79.20;32.50;;;-1.70;99.90;;;;;;5138014;27;20138;-54
2022/12/17 17:21:17;;;;;;;75.30;31.20;;;-1.80;99.90;;;;;;5137844;27;20043;-54
2022/12/17 17:23:43;;;;;;;79.18;31.92;;;-1.80;99.90;;;;;;5137762;27;20065;-56
2022/12/17 17:26:09;;;;;;;82.75;33.20;;;-1.80;99.90;;;;;;5137858;27;20058;-55
2022/12/17 17:28:35;;;;;;;74.82;31.23;;;-1.90;99.90;;;;;;5137379;27;20043;-54
2022/12/17 17:31:02;;;;;;;79.22;31.52;;;-1.80;99.90;;;;;;5137859;27;20394;-55
2022/12/17 17:33:33;;;;;;;71.30;31.30;;;-1.90;99.90;;;;;;5137561;27;20047;-55
2022/12/17 17:36:07;;;;;;;77.20;31.65;;;-1.80;99.90;;;;;;5136974;27;20098;-55
2022/12/17 17:38:34;;;;;;;85.85;33.80;;;-1.80;99.90;;;;;;5137874;27;20086;-54
2022/12/17 17:41:00;;;;;;;81.55;31.92;;;-1.90;99.90;;;;;;5136647;27;20051;-55
2022/12/17 17:43:26;;;;;;;80.25;31.15;;;-1.90;99.90;;;;;;5136974;27;20050;-55
2022/12/17 17:45:52;;;;;;;77.50;33.40;;;-1.90;99.90;;;;;;5137380;27;20054;-54
2022/12/17 17:48:18;;;;;;;81.13;31.35;;;-2.00;99.90;;;;;;5136932;27;20429;-54
2022/12/17 17:50:55;;;;;;;76.30;32.47;;;-2.00;99.90;;;;;;5146352;27;20046;-56
2022/12/17 17:53:20;;;;;;;81.22;32.78;;;-2.10;99.90;;;;;;5123907;27;20043;-55
2022/12/17 17:55:49;;;;;;;84.70;31.65;;;-2.00;99.90;;;;;;5136824;27;20095;-54
2022/12/17 17:58:14;;;;;;;81.53;34.83;;;-2.10;99.90;;;;;;5136259;27;20055;-56
2022/12/17 18:00:40;;;;;;;83.30;34.50;;;-2.00;99.90;;;;;;5136743;27;20039;-56
2022/12/17 18:03:06;;;;;;;72.78;30.73;;;-2.10;99.90;;;;;;5136821;27;20138;-56
2022/12/17 18:05:37;;;;;;;75.72;32.15;;;-2.10;99.90;;;;;;5136524;27;20564;-56
2022/12/17 18:08:03;;;;;;;72.75;30.48;;;-2.10;99.90;;;;;;5137107;27;20110;-55
2022/12/17 18:10:28;;;;;;;82.80;37.08;;;-2.00;99.90;;;;;;5136932;27;20147;-54
2022/12/17 18:15:38;;;;;;;80.72;32.03;;;-2.20;99.90;;;;;;5136293;27;20066;-55
2022/12/17 18:18:04;;;;;;;77.53;32.65;;;-2.20;99.90;;;;;;5136184;27;20594;-55
2022/12/17 18:20:30;;;;;;;77.63;32.38;;;-2.10;99.90;;;;;;5144450;27;20593;-56
2022/12/17 18:22:55;;;;;;;93.35;34.05;;;-2.10;99.90;;;;;;5146465;27;20048;-54
2022/12/17 18:25:21;;;;;;;76.20;31.70;;;-2.20;99.90;;;;;;5145552;27;20085;-54
2022/12/17 18:27:50;;;;;;;75.50;30.00;;;-2.30;99.90;;;;;;5145054;27;20118;-56
2022/12/17 18:30:15;;;;;;;75.40;31.10;;;-2.30;99.90;;;;;;5146186;27;20049;-55
2022/12/17 18:32:41;;;;;;;82.47;32.10;;;-2.30;99.90;;;;;;5147221;27;20711;-56
2022/12/17 18:35:07;;;;;;;82.53;31.27;;;-2.30;99.90;;;;;;5145474;27;20046;-55
2022/12/17 18:37:33;;;;;;;79.45;32.15;;;-2.20;99.90;;;;;;5127942;27;20054;-55
2022/12/17 18:39:59;;;;;;;77.65;29.25;;;-2.20;99.90;;;;;;5146571;27;20107;-56
2022/12/17 18:45:09;;;;;;;76.20;31.80;;;-2.30;99.90;;;;;;5138837;27;20044;-56
2022/12/17 18:47:34;;;;;;;77.60;31.25;;;-2.30;99.90;;;;;;5135474;27;20043;-54
2022/12/17 18:50:00;;;;;;;76.70;31.08;;;-2.30;99.90;;;;;;5136348;27;20043;-55
2022/12/17 18:52:26;;;;;;;78.28;31.90;;;-2.40;99.90;;;;;;5135840;27;20052;-54
2022/12/17 18:54:52;;;;;;;74.93;28.75;;;-2.30;99.90;;;;;;5136194;27;20066;-54
2022/12/17 18:57:18;;;;;;;77.18;32.13;;;-2.40;99.90;;;;;;5156702;27;20030;-55
2022/12/17 18:59:43;;;;;;;71.82;28.83;;;-2.50;99.90;;;;;;5157253;27;20259;-56
2022/12/17 19:02:11;;;;;;;76.03;28.95;;;-2.40;99.90;;;;;;5137557;27;20616;-54
2022/12/17 19:04:37;;;;;;;71.32;29.80;;;-2.30;99.90;;;;;;5156589;27;20254;-55
2022/12/17 19:07:02;;;;;;;70.35;29.00;;;-2.40;99.90;;;;;;5156541;27;20039;-55
2022/12/17 19:09:33;;;;;;;77.88;29.30;;;-2.40;99.90;;;;;;5157098;27;20045;-54
2022/12/17 19:11:59;;;;;;;71.85;29.63;;;-2.40;99.90;;;;;;5138008;27;20121;-55
2022/12/17 19:14:25;;;;;;;72.38;27.98;;;-2.30;99.90;;;;;;5156618;27;20067;-55
2022/12/17 19:16:53;;;;;;;71.53;29.80;;;-2.30;99.90;;;;;;5156388;27;20076;-56
2022/12/17 19:19:19;;;;;;;78.78;31.10;;;-2.40;99.90;;;;;;5156654;27;20362;-55
2022/12/17 19:21:45;;;;;;;73.78;30.20;;;-2.40;99.90;;;;;;5156530;27;20043;-53
2022/12/17 19:24:16;;;;;;;77.10;31.70;;;-2.50;99.90;;;;;;5156731;27;20047;-58
2022/12/17 19:26:42;;;;;;;75.65;29.02;;;-2.30;99.90;;;;;;5156531;27;20057;-55
2022/12/17 19:29:09;;;;;;;72.30;28.83;;;-2.50;99.90;;;;;;5137489;27;20092;-54
2022/12/17 19:31:35;;;;;;;73.15;30.08;;;-2.60;99.90;;;;;;5155685;27;20102;-55
2022/12/17 19:34:04;;;;;;;78.63;29.30;;;-2.40;99.90;;;;;;5156770;27;20531;-56
2022/12/17 19:36:31;;;;;;;73.93;29.92;;;-2.60;99.90;;;;;;5156455;27;20510;-55
2022/12/17 19:39:00;;;;;;;73.55;28.48;;;-2.50;99.90;;;;;;5156723;27;20242;-55
2022/12/17 19:41:28;;;;;;;71.80;28.50;;;-2.40;99.90;;;;;;5137273;27;20275;-53
2022/12/17 19:44:03;;;;;;;78.95;32.50;;;-2.60;99.90;;;;;;5156093;27;20039;-53
2022/12/17 19:46:30;;;;;;;72.22;29.48;;;-2.60;99.90;;;;;;5156423;27;20046;-53
2022/12/17 19:48:56;;;;;;;74.32;30.00;;;-2.60;99.90;;;;;;5156043;27;20053;-53
2022/12/17 19:51:24;;;;;;;72.38;28.80;;;-2.70;99.90;;;;;;5156470;27;20039;-55
2022/12/17 19:53:50;;;;;;;78.47;29.25;;;-2.50;99.90;;;;;;5155522;27;20047;-54
2022/12/17 19:56:18;;;;;;;68.85;28.70;;;-2.70;99.90;;;;;;5144384;27;20039;-54
2022/12/17 19:58:47;;;;;;;74.03;31.90;;;-2.60;99.90;;;;;;5135273;27;20065;-54
2022/12/17 20:01:15;;;;;;;70.43;27.95;;;-2.70;99.90;;;;;;5141512;27;20051;-55
2022/12/17 20:03:42;;;;;;;74.07;28.98;;;-2.70;99.90;;;;;;5138918;27;20553;-52
2022/12/17 20:06:10;;;;;;;72.97;28.95;;;-2.70;99.90;;;;;;5139371;27;20075;-54
2022/12/17 20:08:36;;;;;;;74.13;28.73;;;-2.80;99.90;;;;;;5139187;27;20055;-55
2022/12/17 20:11:31;;;;;;;62.17;26.38;;;-2.70;99.90;;;;;;5147252;27;20175;-53
2022/12/17 20:14:02;;;;;;;72.00;27.33;;;-2.60;99.90;;;;;;5159637;27;20078;-55
2022/12/17 20:16:30;;;;;;;75.10;29.40;;;-2.80;99.90;;;;;;5159826;27;20073;-54
2022/12/17 20:18:58;;;;;;;75.05;31.92;;;-2.80;99.90;;;;;;5159473;27;20054;-54
2022/12/17 20:21:24;;;;;;;79.05;30.85;;;-2.70;99.90;;;;;;5141041;27;20509;-56
2022/12/17 20:23:49;;;;;;;72.18;31.52;;;-2.70;99.90;;;;;;5159810;27;20039;-56
2022/12/17 20:26:16;;;;;;;70.88;29.52;;;-2.70;99.90;;;;;;5160061;27;20069;-54
2022/12/17 20:28:43;;;;;;;76.90;29.60;;;-2.70;99.90;;;;;;5159390;27;20039;-54
2022/12/17 20:31:09;;;;;;;69.72;28.85;;;-2.80;99.90;;;;;;5159521;27;20049;-55
2022/12/17 20:33:35;;;;;;;74.57;30.67;;;-2.60;99.90;;;;;;5159347;27;20050;-53
2022/12/17 20:36:09;;;;;;;72.32;31.15;;;-2.70;99.90;;;;;;5159394;27;20035;-55
2022/12/17 20:38:36;;;;;;;74.07;30.88;;;-2.70;99.90;;;;;;5141188;27;20414;-56
2022/12/17 20:41:08;;;;;;;71.65;31.63;;;-2.70;99.90;;;;;;5159019;27;20050;-55
2022/12/17 20:43:34;;;;;;;75.10;32.30;;;-2.80;99.90;;;;;;5159388;27;20107;-52
2022/12/17 20:46:00;;;;;;;72.75;31.30;;;-2.90;99.90;;;;;;5159439;27;20046;-53
2022/12/17 20:48:25;;;;;;;67.63;29.63;;;-2.90;99.90;;;;;;5159445;27;20058;-55
2022/12/17 20:50:51;;;;;;;75.95;31.63;;;-2.80;99.90;;;;;;5141020;27;20054;-54
2022/12/17 20:53:18;;;;;;;74.57;31.52;;;-2.80;99.90;;;;;;5158553;27;20048;-53
2022/12/17 20:55:43;;;;;;;74.22;30.23;;;-2.80;99.90;;;;;;5151858;27;20383;-54
2022/12/17 20:58:09;;;;;;;68.65;29.35;;;-2.80;99.90;;;;;;5138096;27;20070;-55
2022/12/17 21:00:35;;;;;;;71.88;31.65;;;-3.00;99.90;;;;;;5138447;27;20050;-55
2022/12/17 21:03:01;;;;;;;66.70;30.35;;;-2.80;99.90;;;;;;5137861;27;20074;-55
2022/12/17 21:05:26;;;;;;;69.63;30.40;;;-2.80;99.90;;;;;;5137944;27;20051;-55
2022/12/17 21:07:52;;;;;;;72.10;30.65;;;-3.00;99.90;;;;;;5138411;27;20388;-55
2022/12/17 21:10:18;;;;;;;76.20;30.60;;;-2.80;99.90;;;;;;5137480;27;20143;-55
2022/12/17 21:15:28;;;;;;;67.53;30.20;;;-2.80;99.90;;;;;;5137697;27;20852;-53
2022/12/17 21:17:54;;;;;;;71.75;31.88;;;-2.80;99.90;;;;;;5138120;27;20050;-55
2022/12/17 21:20:20;;;;;;;72.88;31.40;;;-2.80;99.90;;;;;;5137983;27;20076;-54
2022/12/17 21:22:46;;;;;;;76.38;32.78;;;-2.70;99.90;;;;;;5119158;27;20051;-55
2022/12/17 21:25:11;;;;;;;69.25;29.95;;;-2.80;99.90;;;;;;5119872;27;20054;-55
2022/12/17 21:27:37;;;;;;;69.70;30.35;;;-2.80;99.90;;;;;;5137200;27;20076;-55
2022/12/17 21:30:03;;;;;;;80.05;33.88;;;-2.70;99.90;;;;;;5137731;27;20081;-55
2022/12/17 21:32:29;;;;;;;69.22;32.20;;;-2.70;99.90;;;;;;5137680;27;20075;-54
2022/12/17 21:34:54;;;;;;;73.75;32.35;;;-2.90;99.90;;;;;;5137975;27;20039;-51
2022/12/17 21:37:20;;;;;;;73.15;31.50;;;-2.80;99.90;;;;;;5137452;27;20077;-54
2022/12/17 21:39:46;;;;;;;74.18;32.85;;;-2.70;99.90;;;;;;5137232;27;20035;-53
2022/12/17 21:44:55;;;;;;;72.05;32.65;;;-2.90;99.90;;;;;;5137108;27;20042;-56
2022/12/17 21:47:21;;;;;;;74.93;33.63;;;-2.90;99.90;;;;;;5119300;27;20039;-55
2022/12/17 21:49:47;;;;;;;74.88;33.95;;;-2.80;99.90;;;;;;5137349;27;20051;-55
2022/12/17 21:52:13;;;;;;;76.38;34.75;;;-2.80;99.90;;;;;;5136956;27;20051;-53
2022/12/17 21:54:38;;;;;;;77.32;35.75;;;-2.80;99.90;;;;;;5118785;27;20062;-53
2022/12/17 21:57:04;;;;;;;75.05;33.88;;;-2.80;99.90;;;;;;5137050;27;20035;-53
2022/12/17 21:59:30;;;;;;;73.20;32.42;;;-2.90;99.90;;;;;;5137211;27;20036;-55
2022/12/17 22:01:58;;;;;;;71.85;31.88;;;-3.00;99.90;;;;;;5136876;27;20133;-55
2022/12/17 22:04:24;;;;;;;77.75;31.23;;;-2.90;99.90;;;;;;5136543;27;20434;-53
2022/12/17 22:06:50;;;;;;;75.25;33.22;;;-2.80;99.90;;;;;;5118298;27;20064;-56
2022/12/17 22:09:17;;;;;;;73.20;31.15;;;-2.90;99.90;;;;;;5136894;27;20047;-50
2022/12/17 22:11:43;;;;;;;75.32;33.65;;;-3.00;99.90;;;;;;5136394;27;20035;-52
2022/12/17 22:14:11;;;;;;;82.25;34.45;;;-2.90;99.90;;;;;;5136647;27;20042;-53
2022/12/17 22:16:41;;;;;;;79.78;35.25;;;-3.00;99.90;;;;;;5118087;27;20062;-51
2022/12/17 22:19:13;;;;;;;74.60;32.58;;;-2.90;99.90;;;;;;5118178;27;20126;-53
2022/12/17 22:21:41;;;;;;;77.65;33.25;;;-3.00;99.90;;;;;;5136456;27;20043;-52
2022/12/17 22:24:15;;;;;;;82.40;34.70;;;-3.00;99.90;;;;;;5136303;27;20099;-53
2022/12/17 22:26:41;;;;;;;77.57;34.17;;;-2.90;99.90;;;;;;5136693;27;20606;-53
2022/12/17 22:29:07;;;;;;;78.75;33.78;;;-3.00;99.90;;;;;;5117801;27;20075;-54
2022/12/17 22:34:17;;;;;;;75.05;35.63;;;-2.90;99.90;;;;;;5136446;27;20329;-53
2022/12/17 22:36:43;;;;;;;74.50;35.45;;;-3.00;99.90;;;;;;5136402;27;20399;-52
2022/12/17 22:39:13;;;;;;;82.10;32.45;;;-2.80;99.90;;;;;;5136472;27;20164;-53
2022/12/17 22:44:24;;;;;;;78.50;32.60;;;-2.90;99.90;;;;;;5136030;27;20826;-52
2022/12/17 22:46:50;;;;;;;82.82;32.50;;;-2.80;99.90;;;;;;5136704;27;20143;-52
2022/12/17 22:49:17;;;;;;;76.82;35.22;;;-3.00;99.90;;;;;;5134503;27;20170;-52
2022/12/17 22:51:43;;;;;;;74.82;33.22;;;-3.10;99.90;;;;;;5136190;27;20063;-52
2022/12/17 22:54:11;;;;;;;76.18;33.95;;;-3.00;99.90;;;;;;5136277;27;20064;-53
2022/12/17 22:56:38;;;;;;;71.57;32.75;;;-3.00;99.90;;;;;;5136134;27;20418;-52
2022/12/17 22:59:04;;;;;;;78.63;34.17;;;-3.20;99.90;;;;;;5118057;27;20050;-54
2022/12/17 23:01:30;;;;;;;76.50;34.67;;;-3.10;99.90;;;;;;5135332;27;20043;-53
2022/12/17 23:03:57;;;;;;;78.32;33.67;;;-3.20;99.90;;;;;;5135892;27;20056;-53
2022/12/17 23:06:23;;;;;;;81.18;33.88;;;-3.20;99.90;;;;;;5135865;27;20122;-50
2022/12/17 23:08:50;;;;;;;81.15;33.17;;;-3.20;99.90;;;;;;5136218;27;20045;-53
2022/12/17 23:11:18;;;;;;;73.97;32.85;;;-3.20;99.90;;;;;;5136042;27;20049;-53
2022/12/17 23:13:44;;;;;;;80.63;35.15;;;-3.00;99.90;;;;;;5135233;27;20050;-54
2022/12/17 23:16:12;;;;;;;73.97;32.70;;;-3.10;99.90;;;;;;5134706;28;20043;-51
2022/12/17 23:18:39;;;;;;;72.60;30.75;;;-3.00;99.90;;;;;;5125247;27;20075;-54
2022/12/17 23:21:10;;;;;;;74.60;30.38;;;-2.90;99.90;;;;;;5145694;27;20035;-55
2022/12/17 23:23:36;;;;;;;75.25;31.92;;;-2.90;99.90;;;;;;5144502;27;20043;-52
2022/12/17 23:26:17;;;;;;;76.97;32.55;;;-2.90;99.90;;;;;;5146479;27;20106;-55
2022/12/17 23:28:44;;;;;;;77.63;31.75;;;-2.80;99.90;;;;;;5135074;28;20047;-55
2022/12/17 23:31:18;;;;;;;77.50;32.58;;;-3.00;99.90;;;;;;5135580;28;20122;-55
2022/12/17 23:33:44;;;;;;;84.88;32.60;;;-2.90;99.90;;;;;;5137274;27;20050;-53
2022/12/17 23:36:16;;;;;;;76.93;31.83;;;-3.00;99.90;;;;;;5139680;27;20043;-53
2022/12/17 23:38:41;;;;;;;79.43;31.42;;;-2.80;99.90;;;;;;5141546;27;20043;-52
2022/12/17 23:41:13;;;;;;;80.30;31.98;;;-3.00;99.90;;;;;;5142931;27;20051;-50
2022/12/17 23:43:39;;;;;;;83.53;35.23;;;-3.00;99.90;;;;;;5143555;27;20043;-53
2022/12/17 23:46:06;;;;;;;80.60;33.13;;;-2.90;99.90;;;;;;5125194;27;20322;-49
2022/12/17 23:48:37;;;;;;;81.50;34.20;;;-2.90;99.90;;;;;;5143366;27;20042;-52
2022/12/17 23:51:03;;;;;;;80.50;32.97;;;-3.00;99.90;;;;;;5143669;27;20042;-53
2022/12/17 23:53:30;;;;;;;88.68;38.22;;;-3.10;99.90;;;;;;5143094;27;20070;-51
2022/12/17 23:56:08;;;;;;;80.53;32.25;;;-3.10;99.90;;;;;;5152524;27;20078;-51
2022/12/17 23:58:35;;;;;;;82.30;32.38;;;-3.10;99.90;;;;;;5163875;27;20302;-52
